Time,TemperatureF,DewpointF,PressureIn,WindDirection,WindDirectionDegrees,WindSpeedMPH,WindSpeedGustMPH,Humidity,HourlyPrecipIn,Conditions,Clouds,dailyrainin,SolarRadiationWatts/m^2,SoftwareType,DateUTC
2013-05-02 00:02:00,52.3,51.8,30.17,SE,126,5.0,14.0,98,0.00,,,0.01,0.0,meteohub,2013-05-02 04:02:00,
2013-05-02 00:07:00,52.3,51.8,30.17,NNE,26,5.0,14.0,98,0.00,,,0.00,0.0,meteohub,2013-05-02 04:07:00,
2013-05-02 00:08:00,52.3,51.8,30.18,West,267,1.0,14.0,98,0.00,,,0.00,0.0,meteohub,2013-05-02 04:08:00,
2013-05-02 00:14:00,52.2,51.6,30.18,SE,136,5.0,12.0,98,0.00,,,0.00,0.0,meteohub,2013-05-02 04:14:00,
2013-05-02 00:20:00,52.3,51.8,30.17,WSW,258,2.0,16.0,98,0.00,,,0.00,0.0,meteohub,2013-05-02 04:20:00,
2013-05-02 00:26:00,52.3,51.8,30.18,WNW,287,0.0,16.0,98,0.00,,,0.00,0.0,meteohub,2013-05-02 04:26:00,
2013-05-02 00:27:00,52.2,51.6,30.18,West,270,1.0,16.0,98,0.00,,,0.00,0.0,meteohub,2013-05-02 04:27:00,
2013-05-02 00:32:00,52.2,51.6,30.18,ESE,112,0.0,16.0,98,0.00,,,0.00,0.0,meteohub,2013-05-02 04:32:00,
2013-05-02 00:37:00,52.2,51.6,30.18,ENE,59,0.0,17.0,98,0.00,,,0.00,0.0,meteohub,2013-05-02 04:37:00,
2013-05-02 00:42:00,52.2,51.6,30.18,WNW,302,8.0,17.0,98,0.00,,,0.00,0.0,meteohub,2013-05-02 04:42:00,
2013-05-02 00:47:00,52.0,51.4,30.17,SSE,167,2.0,13.0,98,0.00,,,0.00,0.0,meteohub,2013-05-02 04:47:00,
2013-05-02 00:52:00,52.0,51.4,30.18,NNE,26,1.0,14.0,98,0.00,,,0.00,0.0,meteohub,2013-05-02 04:52:00,
2013-05-02 00:57:00,52.0,51.4,30.18,NW,317,1.0,14.0,98,0.00,,,0.00,0.0,meteohub,2013-05-02 04:57:00,
2013-05-02 01:02:00,51.8,51.3,30.18,SW,225,4.0,13.0,98,0.00,,,0.00,0.0,meteohub,2013-05-02 05:02:00,
2013-05-02 01:07:00,51.6,51.1,30.18,SSE,162,2.0,13.0,98,0.00,,,0.00,0.0,meteohub,2013-05-02 05:07:00,
2013-05-02 01:12:00,51.6,51.1,30.18,West,279,6.0,13.0,98,0.00,,,0.00,0.0,meteohub,2013-05-02 05:12:00,
2013-05-02 01:17:00,51.4,50.5,30.19,North,355,0.0,17.0,97,0.00,,,0.00,0.0,meteohub,2013-05-02 05:17:00,
2013-05-02 01:22:00,51.4,50.5,30.18,NE,40,7.0,17.0,97,0.00,,,0.00,0.0,meteohub,2013-05-02 05:22:00,
2013-05-02 01:27:00,51.4,50.5,30.18,NE,48,3.0,17.0,97,0.00,,,0.00,0.0,meteohub,2013-05-02 05:27:00,
2013-05-02 01:32:00,51.4,50.5,30.18,NNE,18,3.0,15.0,97,0.00,,,0.00,0.0,meteohub,2013-05-02 05:32:00,
2013-05-02 01:37:00,51.4,50.5,30.18,ENE,65,1.0,12.0,97,0.00,,,0.00,0.0,meteohub,2013-05-02 05:37:00,
2013-05-02 01:42:00,51.4,50.5,30.18,South,171,2.0,15.0,97,0.00,,,0.00,0.0,meteohub,2013-05-02 05:42:00,
2013-05-02 01:47:00,51.4,50.5,30.18,SSW,198,1.0,15.0,97,0.00,,,0.00,0.0,meteohub,2013-05-02 05:47:00,
2013-05-02 01:52:00,51.4,50.5,30.18,NNW,347,1.0,15.0,97,0.00,,,0.00,0.0,meteohub,2013-05-02 05:52:00,
2013-05-02 01:57:00,51.4,50.5,30.18,NW,322,0.0,14.0,97,0.00,,,0.00,0.0,meteohub,2013-05-02 05:57:00,
2013-05-02 02:02:00,51.4,50.5,30.18,NNW,327,1.0,13.0,97,0.00,,,0.00,0.0,meteohub,2013-05-02 06:02:00,
2013-05-02 02:07:00,51.4,50.5,30.18,ENE,70,0.0,13.0,97,0.00,,,0.00,0.0,meteohub,2013-05-02 06:07:00,
2013-05-02 02:12:00,51.4,50.5,30.18,NNW,346,1.0,10.0,97,0.00,,,0.00,0.0,meteohub,2013-05-02 06:12:00,
2013-05-02 02:17:00,51.3,50.4,30.18,North,0,0.0,15.0,97,0.00,,,0.00,0.0,meteohub,2013-05-02 06:17:00,
2013-05-02 02:22:00,51.3,50.4,30.17,NW,324,2.0,15.0,97,0.00,,,0.00,0.0,meteohub,2013-05-02 06:22:00,
2013-05-02 02:27:00,51.3,50.4,30.17,North,355,5.0,15.0,97,0.00,,,0.00,0.0,meteohub,2013-05-02 06:27:00,
2013-05-02 02:32:00,51.3,50.4,30.17,NNW,338,2.0,12.0,97,0.00,,,0.00,0.0,meteohub,2013-05-02 06:32:00,
2013-05-02 02:37:00,51.3,50.4,30.17,NNE,22,2.0,12.0,97,0.00,,,0.00,0.0,meteohub,2013-05-02 06:37:00,
2013-05-02 02:42:00,51.3,50.4,30.16,WSW,245,1.0,12.0,97,0.00,,,0.00,0.0,meteohub,2013-05-02 06:42:00,
2013-05-02 02:47:00,51.3,50.4,30.16,NNW,335,3.0,13.0,97,0.00,,,0.00,0.0,meteohub,2013-05-02 06:47:00,
2013-05-02 02:52:00,51.3,50.7,30.16,NNE,12,1.0,13.0,98,0.00,,,0.00,0.0,meteohub,2013-05-02 06:52:00,
2013-05-02 02:57:00,51.4,50.9,30.16,NNW,327,4.0,13.0,98,0.00,,,0.00,0.0,meteohub,2013-05-02 06:57:00,
2013-05-02 03:02:00,51.4,50.9,30.16,NNW,340,3.0,13.0,98,0.00,,,0.00,0.0,meteohub,2013-05-02 07:02:00,
2013-05-02 03:07:00,51.4,50.9,30.16,North,355,0.0,13.0,98,0.00,,,0.00,0.0,meteohub,2013-05-02 07:07:00,
2013-05-02 03:12:00,51.4,50.9,30.16,NNW,328,2.0,15.0,98,0.01,,,0.01,0.0,meteohub,2013-05-02 07:12:00,
2013-05-02 03:17:00,51.3,50.7,30.16,ENE,64,0.0,15.0,98,0.01,,,0.01,0.0,meteohub,2013-05-02 07:17:00,
2013-05-02 03:22:00,51.3,50.7,30.16,North,355,2.0,19.0,98,0.01,,,0.01,0.0,meteohub,2013-05-02 07:22:00,
2013-05-02 03:27:00,51.3,50.7,30.16,NE,38,2.0,19.0,98,0.01,,,0.01,0.0,meteohub,2013-05-02 07:27:00,
2013-05-02 03:32:00,51.1,50.5,30.16,NNW,334,2.0,14.0,98,0.01,,,0.01,0.0,meteohub,2013-05-02 07:32:00,
2013-05-02 03:37:00,51.1,50.5,30.16,North,355,4.0,13.0,98,0.01,,,0.01,0.0,meteohub,2013-05-02 07:37:00,
2013-05-02 03:42:00,51.1,50.5,30.16,North,0,2.0,13.0,98,0.02,,,0.02,0.0,meteohub,2013-05-02 07:42:00,
2013-05-02 03:47:00,51.1,50.5,30.16,North,355,2.0,13.0,98,0.02,,,0.02,0.0,meteohub,2013-05-02 07:47:00,
2013-05-02 03:52:00,51.1,50.5,30.16,WSW,242,3.0,12.0,98,0.02,,,0.02,0.0,meteohub,2013-05-02 07:52:00,
2013-05-02 03:57:00,51.1,50.5,30.16,North,5,12.0,14.0,98,0.03,,,0.03,0.0,meteohub,2013-05-02 07:57:00,
2013-05-02 04:02:00,51.1,50.5,30.16,NNW,340,1.0,14.0,98,0.03,,,0.03,0.0,meteohub,2013-05-02 08:02:00,
2013-05-02 04:07:00,51.1,50.5,30.16,West,278,2.0,14.0,98,0.05,,,0.05,0.0,meteohub,2013-05-02 08:07:00,
2013-05-02 04:12:00,51.1,50.5,30.16,NNW,331,8.0,14.0,98,0.04,,,0.05,0.0,meteohub,2013-05-02 08:12:00,
2013-05-02 04:17:00,51.1,50.5,30.16,NE,51,1.0,16.0,98,0.04,,,0.05,0.0,meteohub,2013-05-02 08:17:00,
2013-05-02 04:22:00,50.9,50.4,30.16,NNE,20,1.0,17.0,98,0.04,,,0.05,0.0,meteohub,2013-05-02 08:22:00,
2013-05-02 04:27:00,50.9,50.4,30.16,NNW,336,2.0,17.0,98,0.04,,,0.05,0.0,meteohub,2013-05-02 08:27:00,
2013-05-02 04:32:00,50.9,50.4,30.16,North,355,1.0,17.0,98,0.05,,,0.06,0.0,meteohub,2013-05-02 08:32:00,
2013-05-02 04:37:00,50.9,50.4,30.16,NNE,16,0.0,16.0,98,0.04,,,0.06,0.0,meteohub,2013-05-02 08:37:00,
2013-05-02 04:42:00,50.9,50.4,30.16,ENE,59,7.0,16.0,98,0.04,,,0.06,0.0,meteohub,2013-05-02 08:42:00,
2013-05-02 04:47:00,50.9,50.4,30.15,NNW,340,0.0,14.0,98,0.04,,,0.06,0.0,meteohub,2013-05-02 08:47:00,
2013-05-02 04:52:00,50.9,50.4,30.15,NE,34,2.0,15.0,98,0.04,,,0.06,0.0,meteohub,2013-05-02 08:52:00,
2013-05-02 04:57:00,50.9,50.4,30.16,North,10,3.0,16.0,98,0.03,,,0.06,0.0,meteohub,2013-05-02 08:57:00,
2013-05-02 05:02:00,50.9,50.4,30.16,NNW,342,3.0,16.0,98,0.02,,,0.06,0.0,meteohub,2013-05-02 09:02:00,
2013-05-02 05:07:00,50.9,50.4,30.15,WSW,252,1.0,16.0,98,0.02,,,0.07,0.0,meteohub,2013-05-02 09:07:00,
2013-05-02 05:12:00,50.9,50.4,30.15,NW,321,1.0,12.0,98,0.02,,,0.07,0.0,meteohub,2013-05-02 09:12:00,
2013-05-02 05:17:00,50.9,50.4,30.15,SE,144,0.0,13.0,98,0.02,,,0.07,0.0,meteohub,2013-05-02 09:17:00,
2013-05-02 05:22:00,50.9,50.4,30.15,North,355,1.0,15.0,98,0.02,,,0.07,0.0,meteohub,2013-05-02 09:22:00,
2013-05-02 05:27:00,50.9,50.4,30.15,NNW,339,2.0,15.0,98,0.02,,,0.07,0.0,meteohub,2013-05-02 09:27:00,
2013-05-02 05:32:00,51.1,50.5,30.15,NNW,342,0.0,15.0,98,0.01,,,0.07,0.0,meteohub,2013-05-02 09:32:00,
2013-05-02 05:37:00,50.9,50.4,30.15,NNW,341,2.0,10.0,98,0.02,,,0.08,0.0,meteohub,2013-05-02 09:37:00,
2013-05-02 05:42:00,50.9,50.4,30.15,ENE,74,0.0,9.0,98,0.02,,,0.08,0.0,meteohub,2013-05-02 09:42:00,
2013-05-02 05:47:00,50.9,50.4,30.15,SE,146,0.0,10.0,98,0.02,,,0.08,0.0,meteohub,2013-05-02 09:47:00,
2013-05-02 05:52:00,50.9,50.4,30.15,North,351,1.0,10.0,98,0.02,,,0.08,0.0,meteohub,2013-05-02 09:52:00,
2013-05-02 05:57:00,50.9,50.4,30.15,ESE,113,0.0,8.0,98,0.02,,,0.08,0.0,meteohub,2013-05-02 09:57:00,
2013-05-02 06:02:00,50.9,50.4,30.15,ESE,117,1.0,10.0,98,0.01,,,0.08,0.0,meteohub,2013-05-02 10:02:00,
2013-05-02 06:07:00,50.9,50.4,30.15,North,11,1.0,14.0,98,0.01,,,0.08,0.0,meteohub,2013-05-02 10:07:00,
2013-05-02 06:12:00,50.9,50.4,30.15,North,5,2.0,14.0,98,0.02,,,0.09,0.0,meteohub,2013-05-02 10:12:00,
2013-05-02 06:17:00,50.9,50.4,30.15,North,355,2.0,24.0,98,0.02,,,0.09,0.0,meteohub,2013-05-02 10:17:00,
2013-05-02 06:22:00,50.9,50.4,30.15,NNE,14,3.0,24.0,98,0.02,,,0.09,0.0,meteohub,2013-05-02 10:22:00,
2013-05-02 06:27:00,50.9,50.4,30.15,South,184,0.0,24.0,98,0.02,,,0.09,0.0,meteohub,2013-05-02 10:27:00,
2013-05-02 06:32:00,50.7,50.2,30.16,NNW,346,0.0,16.0,98,0.01,,,0.09,0.0,meteohub,2013-05-02 10:32:00,
2013-05-02 06:37:00,50.7,50.2,30.16,NE,40,0.0,16.0,98,0.01,,,0.09,0.0,meteohub,2013-05-02 10:37:00,
2013-05-02 06:42:00,50.7,50.2,30.16,NNW,327,4.0,12.0,98,0.01,,,0.09,0.0,meteohub,2013-05-02 10:42:00,
2013-05-02 06:47:00,50.7,50.2,30.16,North,355,7.0,14.0,98,0.02,,,0.10,0.0,meteohub,2013-05-02 10:47:00,
2013-05-02 06:52:00,50.7,50.2,30.16,West,269,5.0,14.0,98,0.02,,,0.10,0.0,meteohub,2013-05-02 10:52:00,
2013-05-02 06:57:00,50.5,50.0,30.17,NNW,343,5.0,10.0,98,0.02,,,0.10,5.0,meteohub,2013-05-02 10:57:00,
2013-05-02 07:02:00,50.5,50.0,30.16,North,355,3.0,15.0,98,0.02,,,0.10,5.0,meteohub,2013-05-02 11:02:00,
2013-05-02 07:07:00,50.7,50.2,30.16,ENE,63,0.0,15.0,98,0.02,,,0.11,9.0,meteohub,2013-05-02 11:07:00,
2013-05-02 07:12:00,50.7,50.2,30.16,North,0,1.0,15.0,98,0.02,,,0.11,9.0,meteohub,2013-05-02 11:12:00,
2013-05-02 07:17:00,50.7,50.2,30.16,ENE,74,2.0,20.0,98,0.02,,,0.11,11.0,meteohub,2013-05-02 11:17:00,
2013-05-02 07:22:00,50.7,50.2,30.17,East,101,0.0,20.0,98,0.02,,,0.11,11.0,meteohub,2013-05-02 11:22:00,
2013-05-02 07:27:00,50.9,50.4,30.17,SE,146,7.0,15.0,98,0.02,,,0.11,14.0,meteohub,2013-05-02 11:27:00,
2013-05-02 07:32:00,50.7,50.2,30.17,NNW,329,4.0,17.0,98,0.03,,,0.12,18.0,meteohub,2013-05-02 11:32:00,
2013-05-02 07:37:00,50.7,50.2,30.17,North,355,2.0,17.0,98,0.03,,,0.12,23.0,meteohub,2013-05-02 11:37:00,
2013-05-02 07:42:00,50.7,50.2,30.17,North,355,4.0,17.0,98,0.03,,,0.12,28.0,meteohub,2013-05-02 11:42:00,
2013-05-02 07:47:00,50.9,50.4,30.17,NNW,339,4.0,20.0,98,0.02,,,0.12,19.0,meteohub,2013-05-02 11:47:00,
2013-05-02 07:52:00,50.9,50.4,30.17,NNE,20,1.0,20.0,98,0.02,,,0.12,19.0,meteohub,2013-05-02 11:52:00,
2013-05-02 07:57:00,50.9,50.4,30.18,NNW,345,0.0,20.0,98,0.02,,,0.12,19.0,meteohub,2013-05-02 11:57:00,
2013-05-02 08:02:00,50.7,50.2,30.18,NNE,30,0.0,12.0,98,0.02,,,0.12,18.0,meteohub,2013-05-02 12:02:00,
2013-05-02 08:07:00,50.7,50.2,30.18,NNW,332,1.0,11.0,98,0.01,,,0.12,19.0,meteohub,2013-05-02 12:07:00,
2013-05-02 08:12:00,50.7,50.2,30.17,West,266,2.0,15.0,98,0.01,,,0.12,21.0,meteohub,2013-05-02 12:12:00,
2013-05-02 08:17:00,50.7,50.2,30.18,SSE,165,2.0,15.0,98,0.01,,,0.12,19.0,meteohub,2013-05-02 12:17:00,
2013-05-02 08:22:00,50.7,50.2,30.18,West,273,0.0,14.0,98,0.01,,,0.12,23.0,meteohub,2013-05-02 12:22:00,
2013-05-02 08:27:00,50.7,50.2,30.18,NW,321,6.0,14.0,98,0.01,,,0.12,33.0,meteohub,2013-05-02 12:27:00,
2013-05-02 08:32:00,50.7,50.2,30.18,NNW,343,1.0,22.0,98,0.00,,,0.12,42.0,meteohub,2013-05-02 12:32:00,
2013-05-02 08:37:00,50.7,50.2,30.18,NNE,17,0.0,22.0,98,0.00,,,0.12,39.0,meteohub,2013-05-02 12:37:00,
2013-05-02 08:42:00,50.7,50.2,30.18,ENE,59,0.0,22.0,98,0.00,,,0.12,58.0,meteohub,2013-05-02 12:42:00,
2013-05-02 08:47:00,50.7,50.2,30.18,NNW,348,9.0,22.0,98,0.00,,,0.12,54.0,meteohub,2013-05-02 12:47:00,
2013-05-02 08:52:00,50.7,50.2,30.18,North,355,3.0,20.0,98,0.00,,,0.12,65.0,meteohub,2013-05-02 12:52:00,
2013-05-02 08:57:00,50.7,50.2,30.18,NNW,327,4.0,21.0,98,0.00,,,0.12,47.0,meteohub,2013-05-02 12:57:00,
2013-05-02 09:02:00,50.7,50.2,30.19,NNE,24,3.0,21.0,98,0.00,,,0.12,53.0,meteohub,2013-05-02 13:02:00,
2013-05-02 09:07:00,50.7,50.2,30.19,NNE,24,4.0,17.0,98,0.00,,,0.12,53.0,meteohub,2013-05-02 13:07:00,
2013-05-02 09:12:00,50.5,50.0,30.19,North,0,2.0,19.0,98,0.00,,,0.12,37.0,meteohub,2013-05-02 13:12:00,
2013-05-02 09:17:00,50.5,50.0,30.19,North,355,2.0,19.0,98,0.00,,,0.12,37.0,meteohub,2013-05-02 13:17:00,
2013-05-02 09:22:00,50.5,50.0,30.19,NNW,340,3.0,18.0,98,0.00,,,0.12,46.0,meteohub,2013-05-02 13:22:00,
2013-05-02 09:27:00,50.5,50.0,30.19,NNE,14,3.0,11.0,98,0.00,,,0.12,79.0,meteohub,2013-05-02 13:27:00,
2013-05-02 09:32:00,50.5,50.0,30.18,North,5,14.0,19.0,98,0.00,,,0.12,60.0,meteohub,2013-05-02 13:32:00,
2013-05-02 09:37:00,50.5,50.0,30.19,East,92,0.0,19.0,98,0.00,,,0.12,90.0,meteohub,2013-05-02 13:37:00,
2013-05-02 09:42:00,50.7,50.2,30.19,NW,322,4.0,19.0,98,0.00,,,0.12,91.0,meteohub,2013-05-02 13:42:00,
2013-05-02 09:47:00,50.7,50.2,30.19,North,5,2.0,16.0,98,0.00,,,0.12,97.0,meteohub,2013-05-02 13:47:00,
2013-05-02 09:52:00,50.7,50.2,30.19,East,82,0.0,14.0,98,0.00,,,0.12,76.0,meteohub,2013-05-02 13:52:00,
2013-05-02 09:57:00,50.9,50.4,30.19,NW,315,4.0,13.0,98,0.00,,,0.12,84.0,meteohub,2013-05-02 13:57:00,
2013-05-02 10:02:00,51.1,50.7,30.19,North,350,1.0,13.0,99,0.00,,,0.12,72.0,meteohub,2013-05-02 14:02:00,
2013-05-02 10:07:00,51.1,50.7,30.19,NNW,338,4.0,11.0,99,0.00,,,0.12,102.0,meteohub,2013-05-02 14:07:00,
2013-05-02 10:12:00,51.3,50.7,30.19,NNW,340,5.0,22.0,98,0.00,,,0.12,128.0,meteohub,2013-05-02 14:12:00,
2013-05-02 10:17:00,51.4,50.9,30.19,North,5,4.0,22.0,98,0.00,,,0.12,176.0,meteohub,2013-05-02 14:17:00,
2013-05-02 10:22:00,51.4,51.1,30.19,NNE,14,1.0,22.0,99,0.00,,,0.12,167.0,meteohub,2013-05-02 14:22:00,
2013-05-02 10:27:00,51.6,51.3,30.19,North,355,2.0,16.0,99,0.00,,,0.12,165.0,meteohub,2013-05-02 14:27:00,
2013-05-02 10:32:00,51.8,51.4,30.19,NNW,337,4.0,16.0,99,0.00,,,0.12,174.0,meteohub,2013-05-02 14:32:00,
2013-05-02 10:37:00,52.0,51.6,30.19,North,9,0.0,14.0,99,0.00,,,0.12,218.0,meteohub,2013-05-02 14:37:00,
2013-05-02 10:42:00,52.0,51.4,30.19,North,349,9.0,13.0,98,0.00,,,0.12,174.0,meteohub,2013-05-02 14:42:00,
2013-05-02 10:47:00,52.0,51.4,30.20,NW,313,4.0,18.0,98,0.00,,,0.12,190.0,meteohub,2013-05-02 14:47:00,
2013-05-02 10:52:00,52.0,51.4,30.20,ENE,59,4.0,18.0,98,0.00,,,0.12,206.0,meteohub,2013-05-02 14:52:00,
2013-05-02 10:57:00,52.0,51.4,30.20,North,355,3.0,18.0,98,0.00,,,0.12,260.0,meteohub,2013-05-02 14:57:00,
2013-05-02 11:02:00,52.2,51.6,30.20,SE,132,0.0,18.0,98,0.00,,,0.12,260.0,meteohub,2013-05-02 15:02:00,
2013-05-02 11:07:00,52.2,51.6,30.20,NNW,333,14.0,18.0,98,0.00,,,0.12,292.0,meteohub,2013-05-02 15:07:00,
2013-05-02 11:12:00,52.3,51.8,30.20,North,5,4.0,20.0,98,0.00,,,0.12,290.0,meteohub,2013-05-02 15:12:00,
2013-05-02 11:17:00,52.5,52.0,30.20,NNW,344,1.0,20.0,98,0.00,,,0.12,318.0,meteohub,2013-05-02 15:17:00,
2013-05-02 11:22:00,52.9,52.3,30.20,East,101,4.0,20.0,98,0.00,,,0.12,318.0,meteohub,2013-05-02 15:22:00,
2013-05-02 11:27:00,53.2,52.7,30.20,ENE,78,2.0,16.0,98,0.00,,,0.12,369.0,meteohub,2013-05-02 15:27:00,
2013-05-02 11:32:00,53.6,53.1,30.20,North,349,5.0,15.0,98,0.00,,,0.12,352.0,meteohub,2013-05-02 15:32:00,
2013-05-02 11:37:00,54.0,52.9,30.20,North,355,2.0,15.0,96,0.00,,,0.12,457.0,meteohub,2013-05-02 15:37:00,
2013-05-02 11:42:00,54.0,52.9,30.20,ENE,71,2.0,13.0,96,0.00,,,0.12,283.0,meteohub,2013-05-02 15:42:00,
2013-05-02 11:47:00,54.1,53.1,30.20,North,0,3.0,13.0,96,0.00,,,0.12,603.0,meteohub,2013-05-02 15:47:00,
2013-05-02 11:52:00,54.7,53.8,30.20,East,96,0.0,13.0,97,0.00,,,0.12,671.0,meteohub,2013-05-02 15:52:00,
2013-05-02 11:57:00,55.4,54.0,30.20,WSW,248,3.0,13.0,95,0.00,,,0.12,1055.0,meteohub,2013-05-02 15:57:00,
2013-05-02 12:02:00,55.9,54.5,30.20,NNW,343,5.0,13.0,95,0.00,,,0.12,867.0,meteohub,2013-05-02 16:02:00,
2013-05-02 12:07:00,56.3,54.0,30.20,North,355,4.0,18.0,92,0.00,,,0.12,1007.0,meteohub,2013-05-02 16:07:00,
2013-05-02 12:12:00,56.5,54.5,30.20,NNW,345,2.0,18.0,93,0.00,,,0.12,626.0,meteohub,2013-05-02 16:12:00,
2013-05-02 12:17:00,56.1,53.8,30.21,East,89,0.0,18.0,92,0.00,,,0.12,563.0,meteohub,2013-05-02 16:17:00,
2013-05-02 12:22:00,56.1,53.8,30.20,NNW,336,7.0,18.0,92,0.00,,,0.12,642.0,meteohub,2013-05-02 16:22:00,
2013-05-02 12:27:00,56.5,54.0,30.20,NNE,30,2.0,17.0,91,0.00,,,0.12,510.0,meteohub,2013-05-02 16:27:00,
2013-05-02 12:32:00,56.3,53.8,30.20,North,355,3.0,14.0,91,0.00,,,0.12,383.0,meteohub,2013-05-02 16:32:00,
2013-05-02 12:37:00,55.8,53.2,30.20,East,92,0.0,13.0,91,0.00,,,0.12,334.0,meteohub,2013-05-02 16:37:00,
2013-05-02 12:42:00,55.2,52.9,30.20,SSW,209,3.0,13.0,92,0.00,,,0.12,504.0,meteohub,2013-05-02 16:42:00,
2013-05-02 12:47:00,55.2,52.9,30.20,North,5,7.0,15.0,92,0.00,,,0.12,501.0,meteohub,2013-05-02 16:47:00,
2013-05-02 12:52:00,55.4,53.4,30.20,NNE,30,0.0,15.0,93,0.00,,,0.12,443.0,meteohub,2013-05-02 16:52:00,
2013-05-02 12:57:00,55.6,53.6,30.20,ESE,113,7.0,15.0,93,0.00,,,0.12,538.0,meteohub,2013-05-02 16:57:00,
2013-05-02 13:02:00,55.8,53.4,30.19,East,84,0.0,14.0,92,0.00,,,0.12,621.0,meteohub,2013-05-02 17:02:00,
2013-05-02 13:07:00,55.8,53.4,30.19,North,0,0.0,14.0,92,0.00,,,0.12,510.0,meteohub,2013-05-02 17:07:00,
2013-05-02 13:12:00,55.9,53.6,30.20,ESE,119,5.0,14.0,92,0.00,,,0.12,540.0,meteohub,2013-05-02 17:12:00,
2013-05-02 13:17:00,56.3,54.3,30.20,NNW,347,1.0,8.0,93,0.00,,,0.12,624.0,meteohub,2013-05-02 17:17:00,
2013-05-02 13:22:00,56.7,54.3,30.20,East,86,1.0,7.0,92,0.00,,,0.12,789.0,meteohub,2013-05-02 17:22:00,
2013-05-02 13:27:00,57.0,54.5,30.20,East,95,0.0,7.0,91,0.00,,,0.12,747.0,meteohub,2013-05-02 17:27:00,
2013-05-02 13:32:00,57.2,54.3,30.19,ENE,69,0.0,8.0,90,0.00,,,0.12,645.0,meteohub,2013-05-02 17:32:00,
2013-05-02 13:37:00,57.0,53.8,30.19,ENE,61,1.0,8.0,89,0.00,,,0.12,645.0,meteohub,2013-05-02 17:37:00,
2013-05-02 13:42:00,57.0,53.8,30.19,NE,43,0.0,8.0,89,0.00,,,0.12,779.0,meteohub,2013-05-02 17:42:00,
2013-05-02 13:47:00,57.2,54.0,30.20,NNE,13,0.0,7.0,89,0.00,,,0.12,461.0,meteohub,2013-05-02 17:47:00,
2013-05-02 13:52:00,57.4,54.5,30.19,SSE,150,4.0,12.0,90,0.00,,,0.12,622.0,meteohub,2013-05-02 17:52:00,
2013-05-02 13:57:00,57.6,54.3,30.19,East,97,0.0,12.0,89,0.00,,,0.12,346.0,meteohub,2013-05-02 17:57:00,
2013-05-02 14:02:00,57.0,54.1,30.19,NNW,340,0.0,12.0,90,0.00,,,0.12,401.0,meteohub,2013-05-02 18:02:00,
2013-05-02 14:07:00,56.7,53.4,30.19,ESE,104,1.0,8.0,89,0.00,,,0.12,353.0,meteohub,2013-05-02 18:07:00,
2013-05-02 14:12:00,56.3,53.8,30.20,SW,232,0.0,12.0,91,0.00,,,0.12,359.0,meteohub,2013-05-02 18:12:00,
2013-05-02 14:17:00,56.1,53.6,30.20,SSE,165,0.0,12.0,91,0.00,,,0.12,239.0,meteohub,2013-05-02 18:17:00,
2013-05-02 14:22:00,55.9,53.4,30.20,WSW,244,2.0,10.0,91,0.00,,,0.12,260.0,meteohub,2013-05-02 18:22:00,
2013-05-02 14:27:00,55.8,53.2,30.20,SSE,152,2.0,10.0,91,0.00,,,0.12,308.0,meteohub,2013-05-02 18:27:00,
2013-05-02 14:32:00,55.4,53.1,30.20,West,271,0.0,8.0,92,0.00,,,0.12,258.0,meteohub,2013-05-02 18:32:00,
2013-05-02 14:37:00,55.2,53.2,30.20,SSW,197,1.0,8.0,93,0.00,,,0.12,272.0,meteohub,2013-05-02 18:37:00,
2013-05-02 14:42:00,55.2,53.6,30.19,North,355,1.0,8.0,94,0.00,,,0.12,399.0,meteohub,2013-05-02 18:42:00,
2013-05-02 14:47:00,55.0,53.1,30.20,NNW,344,3.0,6.0,93,0.00,,,0.12,151.0,meteohub,2013-05-02 18:47:00,
2013-05-02 14:52:00,54.7,52.7,30.19,NNE,25,2.0,8.0,93,0.00,,,0.12,251.0,meteohub,2013-05-02 18:52:00,
2013-05-02 14:58:00,54.3,52.7,30.19,NNE,14,3.0,9.0,94,0.00,,,0.12,279.0,meteohub,2013-05-02 18:58:00,
2013-05-02 15:04:00,54.3,52.7,30.19,NNW,327,4.0,10.0,94,0.00,,,0.12,218.0,meteohub,2013-05-02 19:04:00,
2013-05-02 15:10:00,54.3,52.7,30.19,North,355,3.0,17.0,94,0.00,,,0.12,241.0,meteohub,2013-05-02 19:10:00,
2013-05-02 15:16:00,54.1,52.7,30.19,ENE,75,0.0,17.0,95,0.00,,,0.12,373.0,meteohub,2013-05-02 19:16:00,
2013-05-02 15:22:00,54.3,52.9,30.19,WSW,240,2.0,17.0,95,0.00,,,0.12,401.0,meteohub,2013-05-02 19:22:00,
2013-05-02 15:27:00,54.7,53.2,30.19,ESE,123,1.0,9.0,95,0.00,,,0.12,283.0,meteohub,2013-05-02 19:27:00,
2013-05-02 15:32:00,54.7,53.1,30.18,ENE,75,1.0,15.0,94,0.00,,,0.12,323.0,meteohub,2013-05-02 19:32:00,
2013-05-02 15:37:00,54.7,53.1,30.18,ENE,71,1.0,19.0,94,0.00,,,0.12,362.0,meteohub,2013-05-02 19:37:00,
2013-05-02 15:42:00,55.0,53.4,30.18,North,5,1.0,19.0,94,0.00,,,0.12,599.0,meteohub,2013-05-02 19:42:00,
2013-05-02 15:47:00,55.2,53.6,30.18,NNW,344,4.0,19.0,94,0.00,,,0.12,299.0,meteohub,2013-05-02 19:47:00,
2013-05-02 15:52:00,55.2,52.9,30.17,NW,325,2.0,6.0,92,0.00,,,0.12,311.0,meteohub,2013-05-02 19:52:00,
2013-05-02 15:57:00,55.4,53.4,30.17,ESE,108,4.0,17.0,93,0.00,,,0.12,278.0,meteohub,2013-05-02 19:57:00,
2013-05-02 16:02:00,55.2,52.9,30.17,South,178,0.0,17.0,92,0.00,,,0.12,142.0,meteohub,2013-05-02 20:02:00,
2013-05-02 16:07:00,55.0,53.1,30.17,NNW,344,4.0,17.0,93,0.00,,,0.12,287.0,meteohub,2013-05-02 20:07:00,
2013-05-02 16:14:00,55.0,53.1,30.17,NNE,33,4.0,9.0,93,0.00,,,0.12,220.0,meteohub,2013-05-02 20:14:00,
2013-05-02 16:20:00,54.9,52.9,30.17,NW,318,0.0,25.0,93,0.00,,,0.12,155.0,meteohub,2013-05-02 20:20:00,
2013-05-02 16:26:00,54.9,52.9,30.17,North,0,0.0,25.0,93,0.00,,,0.12,156.0,meteohub,2013-05-02 20:26:00,
2013-05-02 16:32:00,54.7,53.1,30.16,NNE,12,3.0,9.0,94,0.00,,,0.12,141.0,meteohub,2013-05-02 20:32:00,
2013-05-02 16:37:00,54.3,52.7,30.17,NNW,340,0.0,11.0,94,0.00,,,0.12,118.0,meteohub,2013-05-02 20:37:00,
2013-05-02 16:42:00,54.1,52.5,30.16,NNE,30,1.0,15.0,94,0.00,,,0.12,125.0,meteohub,2013-05-02 20:42:00,
2013-05-02 16:47:00,54.1,52.7,30.16,NW,325,4.0,18.0,95,0.00,,,0.12,130.0,meteohub,2013-05-02 20:47:00,
2013-05-02 16:52:00,54.3,52.9,30.16,NNW,328,0.0,18.0,95,0.00,,,0.12,63.0,meteohub,2013-05-02 20:52:00,
2013-05-02 16:57:00,54.3,52.9,30.16,NNW,338,1.0,18.0,95,0.00,,,0.12,56.0,meteohub,2013-05-02 20:57:00,
2013-05-02 17:02:00,54.1,52.7,30.16,NNE,20,0.0,9.0,95,0.00,,,0.12,67.0,meteohub,2013-05-02 21:02:00,
2013-05-02 17:07:00,53.8,52.3,30.16,East,92,0.0,9.0,95,0.00,,,0.12,46.0,meteohub,2013-05-02 21:07:00,
2013-05-02 17:12:00,53.6,52.5,30.16,West,259,0.0,9.0,96,0.00,,,0.12,42.0,meteohub,2013-05-02 21:12:00,
2013-05-02 17:17:00,53.4,52.3,30.16,NNE,24,2.0,7.0,96,0.00,,,0.12,39.0,meteohub,2013-05-02 21:17:00,
2013-05-02 17:22:00,53.2,52.2,30.16,NNW,341,0.0,7.0,96,0.00,,,0.12,35.0,meteohub,2013-05-02 21:22:00,
2013-05-02 17:29:00,53.2,52.3,30.16,NNW,327,0.0,7.0,97,0.00,,,0.12,49.0,meteohub,2013-05-02 21:29:00,
2013-05-02 17:35:00,53.1,52.2,30.16,ENE,70,0.0,6.0,97,0.00,,,0.12,72.0,meteohub,2013-05-02 21:35:00,
2013-05-02 17:41:00,53.2,52.3,30.16,North,350,2.0,6.0,97,0.00,,,0.12,49.0,meteohub,2013-05-02 21:41:00,
2013-05-02 17:47:00,53.2,52.3,30.16,West,281,2.0,6.0,97,0.00,,,0.12,46.0,meteohub,2013-05-02 21:47:00,
2013-05-02 17:52:00,53.2,52.3,30.16,ENE,60,0.0,8.0,97,0.00,,,0.12,42.0,meteohub,2013-05-02 21:52:00,
2013-05-02 17:57:00,53.1,52.2,30.16,NNW,333,3.0,8.0,97,0.00,,,0.12,54.0,meteohub,2013-05-02 21:57:00,
2013-05-02 18:02:00,53.2,52.3,30.16,NNW,333,0.0,8.0,97,0.00,,,0.12,70.0,meteohub,2013-05-02 22:02:00,
2013-05-02 18:07:00,53.2,52.3,30.16,East,86,0.0,5.0,97,0.00,,,0.12,74.0,meteohub,2013-05-02 22:07:00,
2013-05-02 18:12:00,53.4,52.9,30.16,WSW,257,0.0,5.0,98,0.01,,,0.13,56.0,meteohub,2013-05-02 22:12:00,
2013-05-02 18:17:00,53.4,52.9,30.16,NNE,24,0.0,5.0,98,0.01,,,0.13,72.0,meteohub,2013-05-02 22:17:00,
2013-05-02 18:22:00,53.2,52.7,30.16,NW,320,0.0,8.0,98,0.01,,,0.13,60.0,meteohub,2013-05-02 22:22:00,
2013-05-02 18:27:00,53.2,52.7,30.16,NNE,32,1.0,8.0,98,0.01,,,0.13,58.0,meteohub,2013-05-02 22:27:00,
2013-05-02 18:32:00,53.2,52.7,30.15,WNW,282,0.0,8.0,98,0.01,,,0.13,40.0,meteohub,2013-05-02 22:32:00,
2013-05-02 18:37:00,53.1,52.5,30.15,NNE,26,3.0,11.0,98,0.01,,,0.13,49.0,meteohub,2013-05-02 22:37:00,
2013-05-02 18:42:00,52.9,52.3,30.15,NNE,17,1.0,11.0,98,0.01,,,0.13,65.0,meteohub,2013-05-02 22:42:00,
2013-05-02 18:47:00,52.9,52.3,30.15,NNW,347,2.0,11.0,98,0.01,,,0.13,76.0,meteohub,2013-05-02 22:47:00,
2013-05-02 18:52:00,52.9,52.3,30.15,North,355,1.0,10.0,98,0.01,,,0.13,72.0,meteohub,2013-05-02 22:52:00,
2013-05-02 18:57:00,52.9,52.3,30.15,NNW,336,0.0,5.0,98,0.01,,,0.13,90.0,meteohub,2013-05-02 22:57:00,
2013-05-02 19:02:00,52.9,52.3,30.15,North,0,0.0,5.0,98,0.01,,,0.13,91.0,meteohub,2013-05-02 23:02:00,
2013-05-02 19:07:00,52.9,52.3,30.15,North,0,3.0,16.0,98,0.01,,,0.13,54.0,meteohub,2013-05-02 23:07:00,
2013-05-02 19:12:00,52.9,52.3,30.15,ENE,67,0.0,16.0,98,0.00,,,0.13,23.0,meteohub,2013-05-02 23:12:00,
2013-05-02 19:17:00,52.9,52.3,30.15,North,355,1.0,10.0,98,0.00,,,0.13,12.0,meteohub,2013-05-02 23:17:00,
2013-05-02 19:22:00,52.7,52.2,30.16,NNW,338,0.0,10.0,98,0.00,,,0.13,11.0,meteohub,2013-05-02 23:22:00,
2013-05-02 19:27:00,52.7,52.2,30.15,SSE,164,1.0,10.0,98,0.00,,,0.13,11.0,meteohub,2013-05-02 23:27:00,
2013-05-02 19:32:00,52.5,52.0,30.16,NNW,327,0.0,10.0,98,0.00,,,0.13,9.0,meteohub,2013-05-02 23:32:00,
2013-05-02 19:37:00,52.5,52.0,30.16,North,0,3.0,9.0,98,0.00,,,0.13,9.0,meteohub,2013-05-02 23:37:00,
2013-05-02 19:42:00,52.3,51.8,30.16,West,279,2.0,13.0,98,0.00,,,0.13,11.0,meteohub,2013-05-02 23:42:00,
2013-05-02 19:47:00,52.3,51.8,30.16,NNE,33,0.0,13.0,98,0.00,,,0.13,5.0,meteohub,2013-05-02 23:47:00,
2013-05-02 19:52:00,52.3,51.8,30.16,East,86,1.0,13.0,98,0.00,,,0.13,5.0,meteohub,2013-05-02 23:52:00,
2013-05-02 19:57:00,52.3,51.8,30.16,WSW,257,3.0,4.0,98,0.00,,,0.13,5.0,meteohub,2013-05-02 23:57:00,
2013-05-02 20:02:00,52.3,51.8,30.16,ENE,63,0.0,12.0,98,0.00,,,0.13,5.0,meteohub,2013-05-03 00:02:00,
2013-05-02 20:07:00,52.3,51.8,30.16,North,5,2.0,12.0,98,0.00,,,0.13,9.0,meteohub,2013-05-03 00:07:00,
2013-05-02 20:12:00,52.3,51.8,30.16,North,355,3.0,12.0,98,0.00,,,0.13,5.0,meteohub,2013-05-03 00:12:00,
2013-05-02 20:17:00,52.2,51.6,30.15,North,0,1.0,15.0,98,0.00,,,0.13,0.0,meteohub,2013-05-03 00:17:00,
2013-05-02 20:22:00,52.2,51.6,30.15,NNW,336,1.0,15.0,98,0.00,,,0.13,0.0,meteohub,2013-05-03 00:22:00,
2013-05-02 20:27:00,52.2,51.6,30.15,NNW,336,5.0,15.0,98,0.00,,,0.13,0.0,meteohub,2013-05-03 00:27:00,
2013-05-02 20:32:00,52.0,51.4,30.15,NE,44,1.0,14.0,98,0.00,,,0.13,0.0,meteohub,2013-05-03 00:32:00,
2013-05-02 20:37:00,52.0,51.4,30.15,West,263,2.0,14.0,98,0.00,,,0.13,0.0,meteohub,2013-05-03 00:37:00,
2013-05-02 20:42:00,52.0,51.4,30.16,West,261,2.0,14.0,98,0.00,,,0.13,0.0,meteohub,2013-05-03 00:42:00,
2013-05-02 20:47:00,52.0,51.4,30.15,NNE,16,2.0,13.0,98,0.00,,,0.13,0.0,meteohub,2013-05-03 00:47:00,
2013-05-02 20:52:00,52.0,51.4,30.15,NNE,17,3.0,13.0,98,0.00,,,0.13,0.0,meteohub,2013-05-03 00:52:00,
2013-05-02 20:57:00,52.0,51.4,30.15,North,355,4.0,17.0,98,0.00,,,0.13,0.0,meteohub,2013-05-03 00:57:00,
2013-05-02 21:02:00,52.0,51.1,30.16,NNW,333,5.0,17.0,97,0.00,,,0.13,0.0,meteohub,2013-05-03 01:02:00,
2013-05-02 21:07:00,52.2,51.3,30.16,North,351,2.0,17.0,97,0.00,,,0.13,0.0,meteohub,2013-05-03 01:07:00,
2013-05-02 21:12:00,52.2,51.3,30.16,ESE,103,0.0,15.0,97,0.00,,,0.13,0.0,meteohub,2013-05-03 01:12:00,
2013-05-02 21:17:00,52.2,51.3,30.17,NE,49,3.0,11.0,97,0.00,,,0.13,0.0,meteohub,2013-05-03 01:17:00,
2013-05-02 21:24:00,52.2,51.3,30.16,North,9,3.0,10.0,97,0.00,,,0.13,0.0,meteohub,2013-05-03 01:24:00,
2013-05-02 21:30:00,52.2,51.3,30.17,SSW,204,1.0,14.0,97,0.00,,,0.13,0.0,meteohub,2013-05-03 01:30:00,
2013-05-02 21:36:00,52.2,51.3,30.17,ESE,106,1.0,14.0,97,0.00,,,0.13,0.0,meteohub,2013-05-03 01:36:00,
2013-05-02 21:42:00,52.2,51.3,30.17,North,351,4.0,14.0,97,0.00,,,0.13,0.0,meteohub,2013-05-03 01:42:00,
2013-05-02 21:47:00,52.2,51.3,30.17,North,355,3.0,13.0,97,0.00,,,0.13,0.0,meteohub,2013-05-03 01:47:00,
2013-05-02 21:52:00,52.2,51.3,30.17,NNE,32,2.0,17.0,97,0.00,,,0.13,0.0,meteohub,2013-05-03 01:52:00,
2013-05-02 21:57:00,52.2,51.3,30.17,North,5,0.0,18.0,97,0.00,,,0.13,0.0,meteohub,2013-05-03 01:57:00,
2013-05-02 22:02:00,52.2,51.3,30.17,West,280,2.0,18.0,97,0.00,,,0.13,0.0,meteohub,2013-05-03 02:02:00,
2013-05-02 22:07:00,52.2,51.3,30.17,NW,317,2.0,7.0,97,0.00,,,0.13,0.0,meteohub,2013-05-03 02:07:00,
2013-05-02 22:12:00,52.2,51.3,30.17,NNW,348,12.0,17.0,97,0.00,,,0.13,0.0,meteohub,2013-05-03 02:12:00,
2013-05-02 22:17:00,52.2,51.3,30.16,North,11,5.0,17.0,97,0.00,,,0.13,0.0,meteohub,2013-05-03 02:17:00,
2013-05-02 22:22:00,52.2,51.1,30.17,NNW,329,4.0,17.0,96,0.00,,,0.13,0.0,meteohub,2013-05-03 02:22:00,
2013-05-02 22:27:00,52.2,51.1,30.16,NNW,333,2.0,14.0,96,0.00,,,0.13,0.0,meteohub,2013-05-03 02:27:00,
2013-05-02 22:32:00,52.3,51.3,30.16,WSW,243,6.0,15.0,96,0.00,,,0.13,0.0,meteohub,2013-05-03 02:32:00,
2013-05-02 22:37:00,52.3,51.3,30.17,NNE,13,2.0,18.0,96,0.00,,,0.13,0.0,meteohub,2013-05-03 02:37:00,
2013-05-02 22:42:00,52.3,51.3,30.17,North,0,2.0,18.0,96,0.00,,,0.13,0.0,meteohub,2013-05-03 02:42:00,
2013-05-02 22:47:00,52.3,51.3,30.17,NE,38,0.0,18.0,96,0.00,,,0.13,0.0,meteohub,2013-05-03 02:47:00,
2013-05-02 22:52:00,52.3,50.9,30.17,NNE,14,1.0,19.0,95,0.00,,,0.13,0.0,meteohub,2013-05-03 02:52:00,
2013-05-02 22:57:00,52.3,50.9,30.16,NNW,327,0.0,19.0,95,0.00,,,0.13,0.0,meteohub,2013-05-03 02:57:00,
2013-05-02 23:02:00,52.3,51.3,30.16,East,97,1.0,19.0,96,0.00,,,0.13,0.0,meteohub,2013-05-03 03:02:00,
2013-05-02 23:07:00,52.2,51.1,30.16,North,351,14.0,14.0,96,0.00,,,0.13,0.0,meteohub,2013-05-03 03:07:00,
2013-05-02 23:12:00,52.2,51.1,30.16,East,81,2.0,14.0,96,0.00,,,0.13,0.0,meteohub,2013-05-03 03:12:00,
2013-05-02 23:17:00,52.2,51.1,30.16,North,5,3.0,14.0,96,0.00,,,0.13,0.0,meteohub,2013-05-03 03:17:00,
2013-05-02 23:22:00,52.0,50.9,30.16,ESE,121,1.0,14.0,96,0.00,,,0.13,0.0,meteohub,2013-05-03 03:22:00,
2013-05-02 23:27:00,52.0,50.9,30.16,NE,49,0.0,13.0,96,0.00,,,0.13,0.0,meteohub,2013-05-03 03:27:00,
2013-05-02 23:32:00,52.0,50.9,30.15,West,263,2.0,15.0,96,0.00,,,0.13,0.0,meteohub,2013-05-03 03:32:00,
2013-05-02 23:37:00,52.0,50.9,30.15,NNE,19,2.0,15.0,96,0.00,,,0.13,0.0,meteohub,2013-05-03 03:37:00,
2013-05-02 23:42:00,51.8,50.9,30.15,NW,322,1.0,18.0,97,0.00,,,0.13,0.0,meteohub,2013-05-03 03:42:00,
2013-05-02 23:47:00,51.8,50.9,30.16,NNW,348,6.0,18.0,97,0.00,,,0.13,0.0,meteohub,2013-05-03 03:47:00,
2013-05-02 23:52:00,51.6,50.7,30.15,NNW,329,2.0,12.0,97,0.00,,,0.13,0.0,meteohub,2013-05-03 03:52:00,
2013-05-02 23:57:00,51.6,50.7,30.15,North,349,2.0,18.0,97,0.00,,,0.13,0.0,meteohub,2013-05-03 03:57:00,